createdAt,value
2017-07-05T00:00:40.115Z,71.64
2017-07-05T00:01:40.694Z,72.12
2017-07-05T00:02:41.273Z,72.02
2017-07-05T00:03:41.851Z,73.46
2017-07-05T00:04:42.441Z,72.02
2017-07-05T00:05:43.021Z,71.83
2017-07-05T00:06:43.599Z,72.34
2017-07-05T00:07:44.179Z,72.64
2017-07-05T00:08:44.757Z,73.21
2017-07-05T00:09:45.335Z,72.16
2017-07-05T00:10:45.913Z,71.35
2017-07-05T00:11:46.490Z,72.02
2017-07-05T00:12:47.067Z,71.93
2017-07-05T00:13:47.646Z,72.66
2017-07-05T00:14:48.225Z,73.56
2017-07-05T00:15:48.804Z,73.56
2017-07-05T00:16:49.384Z,72.22
2017-07-05T00:17:49.962Z,72.75
2017-07-05T00:18:50.547Z,72.79
2017-07-05T00:19:51.120Z,73.66
2017-07-05T00:20:51.699Z,74.13
2017-07-05T00:21:52.288Z,74.33
2017-07-05T00:22:52.865Z,73.75
2017-07-05T00:23:53.446Z,74.33
2017-07-05T00:24:54.023Z,75.38
2017-07-05T00:25:54.601Z,74.62
2017-07-05T00:26:55.179Z,74.71
2017-07-05T00:27:55.757Z,75.00
2017-07-05T00:28:56.336Z,74.87
2017-07-05T00:29:56.926Z,75.06
2017-07-05T00:30:57.504Z,75.35
2017-07-05T00:31:58.082Z,74.96
2017-07-05T00:32:58.659Z,75.25
2017-07-05T00:33:59.237Z,75.25
2017-07-05T00:34:59.815Z,75.25
2017-07-05T00:36:00.394Z,75.92
2017-07-05T00:37:00.972Z,76.21
2017-07-05T00:38:01.552Z,76.21
2017-07-05T00:39:02.130Z,76.50
2017-07-05T00:40:02.709Z,76.59
2017-07-05T00:41:03.287Z,76.21
2017-07-05T00:42:03.865Z,76.79
2017-07-05T00:43:04.443Z,77.84
2017-07-05T00:44:05.031Z,80.15
2017-07-05T00:45:05.610Z,79.38
2017-07-05T00:46:06.189Z,78.03
2017-07-05T00:47:06.765Z,77.46
2017-07-05T00:48:07.343Z,78.67
2017-07-05T00:49:07.921Z,78.09
2017-07-05T00:50:08.500Z,77.80
2017-07-05T00:51:09.079Z,79.34
2017-07-05T00:52:09.658Z,78.77
2017-07-05T00:53:10.241Z,78.96
2017-07-05T00:54:10.817Z,78.77
2017-07-05T00:55:11.400Z,78.67
2017-07-05T00:56:11.972Z,78.67
2017-07-05T00:57:12.550Z,78.96
2017-07-05T00:58:13.127Z,78.67
2017-07-05T00:59:13.705Z,79.14
2017-07-05T01:00:14.282Z,78.86
2017-07-05T01:01:14.859Z,79.05
2017-07-05T01:02:15.438Z,79.72
2017-07-05T01:03:16.017Z,80.55
2017-07-05T01:04:16.595Z,80.45
2017-07-05T01:05:17.175Z,79.63
2017-07-05T01:06:17.752Z,81.74
2017-07-05T01:07:18.330Z,81.49
2017-07-05T01:08:18.918Z,79.76
2017-07-05T01:09:19.498Z,79.05
2017-07-05T01:10:20.078Z,79.88
2017-07-05T01:11:20.656Z,80.87
2017-07-05T01:12:21.233Z,81.84
2017-07-05T01:13:21.811Z,82.12
2017-07-05T01:14:22.390Z,82.98
2017-07-05T01:15:22.971Z,82.98
2017-07-05T01:16:23.548Z,82.31
2017-07-05T01:17:24.133Z,82.31
2017-07-05T01:18:24.718Z,81.84
2017-07-05T01:19:25.296Z,81.31
2017-07-05T01:20:25.876Z,81.12
2017-07-05T01:21:26.453Z,82.27
2017-07-05T01:22:27.031Z,82.14
2017-07-05T01:23:27.608Z,81.95
2017-07-05T01:24:28.186Z,82.04
2017-07-05T01:25:28.763Z,83.29
2017-07-05T01:26:29.341Z,83.19
2017-07-05T01:27:29.918Z,83.09
2017-07-05T01:28:30.497Z,83.86
2017-07-05T01:29:31.074Z,82.90
2017-07-05T01:30:31.654Z,82.90
2017-07-05T01:31:32.237Z,83.38
2017-07-05T01:32:32.809Z,83.58
2017-07-05T01:33:33.388Z,82.71
2017-07-05T01:34:33.966Z,83.86
2017-07-05T01:35:34.542Z,83.19
2017-07-05T01:36:35.121Z,84.95
2017-07-05T01:37:35.698Z,82.71
2017-07-05T01:38:36.279Z,83.76
2017-07-05T01:39:36.858Z,84.00
2017-07-05T01:40:37.436Z,83.58
2017-07-05T01:41:38.025Z,83.38
2017-07-05T01:42:38.604Z,84.72
2017-07-05T01:43:39.184Z,84.28
2017-07-05T01:44:39.775Z,84.00
2017-07-05T01:45:40.352Z,84.53
2017-07-05T01:46:40.935Z,84.00
2017-07-05T01:47:41.509Z,82.90
2017-07-05T01:48:42.092Z,83.81
2017-07-05T01:49:42.672Z,84.48
2017-07-05T01:50:43.241Z,82.71
2017-07-05T01:51:43.817Z,82.81
2017-07-05T01:52:44.395Z,83.86
2017-07-05T01:53:44.973Z,83.76
2017-07-05T01:54:45.551Z,83.86
2017-07-05T01:55:46.130Z,85.30
2017-07-05T01:56:46.706Z,84.58
2017-07-05T01:57:47.285Z,84.88
2017-07-05T01:58:47.862Z,85.06
2017-07-05T01:59:48.439Z,85.74
2017-07-05T02:00:49.016Z,85.11
2017-07-05T02:01:49.606Z,84.20
2017-07-05T02:02:50.185Z,85.83
2017-07-05T02:03:50.762Z,85.16
2017-07-05T02:04:51.338Z,85.93
2017-07-05T02:05:51.915Z,86.69
2017-07-05T02:06:52.492Z,86.31
2017-07-05T02:07:53.070Z,84.78
2017-07-05T02:08:53.648Z,85.35
2017-07-05T02:09:54.236Z,85.93
2017-07-05T02:10:54.813Z,85.74
2017-07-05T02:11:55.389Z,85.74
2017-07-05T02:12:55.966Z,86.12
2017-07-05T02:13:56.543Z,86.02
2017-07-05T02:14:57.121Z,85.74
2017-07-05T02:15:57.899Z,87.79
2017-07-05T02:16:58.475Z,87.98
2017-07-05T02:17:59.053Z,86.45
2017-07-05T02:18:59.631Z,87.12
2017-07-05T02:20:00.205Z,84.34
2017-07-05T02:21:00.782Z,84.58
2017-07-05T02:22:01.358Z,84.88
2017-07-05T02:23:01.936Z,85.25
2017-07-05T02:24:02.513Z,86.12
2017-07-05T02:25:03.093Z,85.83
2017-07-05T02:26:03.669Z,85.93
2017-07-05T02:27:04.248Z,87.17
2017-07-05T02:28:04.826Z,85.16
2017-07-05T02:29:05.402Z,85.93
2017-07-05T02:30:05.978Z,85.93
2017-07-05T02:31:06.556Z,87.65
2017-07-05T02:32:07.134Z,87.08
2017-07-05T02:33:07.722Z,86.12
2017-07-05T02:34:08.299Z,86.50
2017-07-05T02:35:08.875Z,87.80
2017-07-05T02:36:09.451Z,88.09
2017-07-05T02:37:10.027Z,87.80
2017-07-05T02:38:10.605Z,88.37
2017-07-05T02:39:11.181Z,87.80
2017-07-05T02:40:11.759Z,88.09
2017-07-05T02:41:12.337Z,87.61
2017-07-05T02:42:12.915Z,88.09
2017-07-05T02:43:13.502Z,88.09
2017-07-05T02:44:14.078Z,87.90
2017-07-05T02:45:14.657Z,87.23
2017-07-05T02:46:15.235Z,87.27
2017-07-05T02:47:15.813Z,87.13
2017-07-05T02:48:16.392Z,86.98
2017-07-05T02:49:16.969Z,87.17
2017-07-05T02:50:17.558Z,87.27
2017-07-05T02:51:18.136Z,87.08
2017-07-05T02:52:18.712Z,87.13
2017-07-05T02:53:19.300Z,86.88
2017-07-05T02:54:19.878Z,86.88
2017-07-05T02:55:20.457Z,86.50
2017-07-05T02:56:21.035Z,86.31
2017-07-05T02:57:21.610Z,86.98
2017-07-05T02:58:22.187Z,86.98
2017-07-05T02:59:22.764Z,87.08
2017-07-05T03:00:23.340Z,86.31
2017-07-05T03:01:23.917Z,86.79
2017-07-05T03:02:24.496Z,86.17
2017-07-05T03:03:25.073Z,85.64
2017-07-05T03:04:25.650Z,86.12
2017-07-05T03:05:26.230Z,86.98
2017-07-05T03:06:26.806Z,87.13
2017-07-05T03:07:27.383Z,87.23
2017-07-05T03:08:27.961Z,88.37
2017-07-05T03:09:28.540Z,87.70
2017-07-05T03:10:29.114Z,87.84
2017-07-05T03:11:29.693Z,87.17
2017-07-05T03:12:30.271Z,87.03
2017-07-05T03:13:30.848Z,87.99
2017-07-05T03:14:31.425Z,88.03
2017-07-05T03:15:32.000Z,88.09
2017-07-05T03:16:32.578Z,87.51
2017-07-05T03:17:33.154Z,87.55
2017-07-05T03:18:33.730Z,87.13
2017-07-05T03:19:34.306Z,86.88
2017-07-05T03:20:34.882Z,87.17
2017-07-05T03:21:35.460Z,87.65
2017-07-05T03:22:36.037Z,87.70
2017-07-05T03:23:36.615Z,87.65
2017-07-05T03:24:37.192Z,87.08
2017-07-05T03:25:37.782Z,86.79
2017-07-05T03:26:38.361Z,86.74
2017-07-05T03:27:38.938Z,87.41
2017-07-05T03:28:39.517Z,87.70
2017-07-05T03:29:40.093Z,87.03
2017-07-05T03:30:40.671Z,87.55
2017-07-05T03:31:41.248Z,86.12
2017-07-05T03:32:41.828Z,85.25
2017-07-05T03:33:42.406Z,85.25
2017-07-05T03:34:42.985Z,84.49
2017-07-05T03:35:43.562Z,85.35
2017-07-05T03:36:44.140Z,85.98
2017-07-05T03:37:44.717Z,87.41
2017-07-05T03:38:45.294Z,86.84
2017-07-05T03:39:45.872Z,86.94
2017-07-05T03:40:46.452Z,87.90
2017-07-05T03:41:47.033Z,88.28
2017-07-05T03:42:47.608Z,88.09
2017-07-05T03:43:48.186Z,88.28
2017-07-05T03:44:48.764Z,89.33
2017-07-05T03:45:49.341Z,89.14
2017-07-05T03:46:49.930Z,89.04
2017-07-05T03:47:50.507Z,87.61
2017-07-05T03:48:51.089Z,88.66
2017-07-05T03:49:51.662Z,88.09
2017-07-05T03:50:52.241Z,87.61
2017-07-05T03:51:52.829Z,87.80
2017-07-05T03:52:53.407Z,89.57
2017-07-05T03:53:53.986Z,87.50
2017-07-05T03:54:54.564Z,87.31
2017-07-05T03:55:55.142Z,85.83
2017-07-05T03:56:55.719Z,86.88
2017-07-05T03:57:56.297Z,86.88
2017-07-05T03:58:56.873Z,88.51
2017-07-05T03:59:57.452Z,87.65
2017-07-05T04:00:58.035Z,88.08
2017-07-05T04:01:58.608Z,86.12
2017-07-05T04:02:59.198Z,87.65
2017-07-05T04:03:59.778Z,86.69
2017-07-05T04:05:00.358Z,86.60
2017-07-05T04:06:00.936Z,87.65
2017-07-05T04:07:01.514Z,88.03
2017-07-05T04:08:02.094Z,89.37
2017-07-05T04:09:02.675Z,89.09
2017-07-05T04:10:03.253Z,88.37
2017-07-05T04:11:03.831Z,88.84
2017-07-05T04:12:04.410Z,87.98
2017-07-05T04:13:04.990Z,88.17
2017-07-05T04:14:05.571Z,88.51
2017-07-05T04:15:06.150Z,88.94
2017-07-05T04:16:06.729Z,88.03
2017-07-05T04:17:07.307Z,88.51
2017-07-05T04:18:07.888Z,89.13
2017-07-05T04:19:08.466Z,86.31
2017-07-05T04:20:09.057Z,88.03
2017-07-05T04:21:09.647Z,87.65
2017-07-05T04:22:10.226Z,87.84
2017-07-05T04:23:10.806Z,87.27
2017-07-05T04:24:11.386Z,88.51
2017-07-05T04:25:11.964Z,89.09
2017-07-05T04:26:12.542Z,89.33
2017-07-05T04:27:13.122Z,91.49
2017-07-05T04:28:13.701Z,89.47
2017-07-05T04:29:14.280Z,88.61
2017-07-05T04:30:14.860Z,88.51
2017-07-05T04:31:15.451Z,89.62
2017-07-05T04:32:16.034Z,89.37
2017-07-05T04:33:16.610Z,90.53
2017-07-05T04:34:17.189Z,91.10
2017-07-05T04:35:17.781Z,90.23
2017-07-05T04:36:18.358Z,89.33
2017-07-05T04:37:18.944Z,91.44
2017-07-05T04:38:19.531Z,92.35
2017-07-05T04:39:20.112Z,92.78
2017-07-05T04:40:20.694Z,92.11
2017-07-05T04:41:21.273Z,93.07
2017-07-05T04:42:21.852Z,92.11
2017-07-05T04:43:22.433Z,91.34
2017-07-05T04:44:23.012Z,92.25
2017-07-05T04:45:23.595Z,91.29
2017-07-05T04:46:24.173Z,90.33
2017-07-05T04:47:24.753Z,91.19
2017-07-05T04:48:25.335Z,91.15
2017-07-05T04:49:25.914Z,90.53
2017-07-05T04:50:26.493Z,89.81
2017-07-05T04:51:27.075Z,90.29
2017-07-05T04:52:27.655Z,90.00
2017-07-05T04:53:28.237Z,90.39
2017-07-05T04:54:28.815Z,89.90
2017-07-05T04:55:29.395Z,90.14
2017-07-05T04:56:29.976Z,90.14
2017-07-05T04:57:30.556Z,89.37
2017-07-05T04:58:31.135Z,89.86
2017-07-05T04:59:31.717Z,89.23
2017-07-05T05:00:32.296Z,90.29
2017-07-05T05:01:32.877Z,89.37
2017-07-05T05:02:33.457Z,89.57
2017-07-05T05:03:34.037Z,88.61
2017-07-05T05:04:34.618Z,88.51
2017-07-05T05:05:35.201Z,89.57
2017-07-05T05:06:35.777Z,87.65
2017-07-05T05:07:36.360Z,88.03
2017-07-05T05:08:36.940Z,87.65
2017-07-05T05:09:37.519Z,87.84
2017-07-05T05:10:38.101Z,88.13
2017-07-05T05:11:38.680Z,87.37
2017-07-05T05:12:39.261Z,87.98
2017-07-05T05:13:39.841Z,86.45
2017-07-05T05:14:40.421Z,86.45
2017-07-05T05:15:41.003Z,85.58
2017-07-05T05:16:41.583Z,86.07
2017-07-05T05:17:42.162Z,85.11
2017-07-05T05:18:42.742Z,85.34
2017-07-05T05:19:43.322Z,85.34
2017-07-05T05:20:43.903Z,85.15
2017-07-05T05:21:44.482Z,85.25
2017-07-05T05:22:45.064Z,85.53
2017-07-05T05:23:45.645Z,85.05
2017-07-05T05:24:46.225Z,85.05
2017-07-05T05:25:46.804Z,83.81
2017-07-05T05:26:47.385Z,83.71
2017-07-05T05:27:47.964Z,83.09
2017-07-05T05:28:48.546Z,84.28
2017-07-05T05:29:49.137Z,84.58
2017-07-05T05:30:49.718Z,83.86
2017-07-05T05:31:50.296Z,84.95
2017-07-05T05:32:50.879Z,84.48
2017-07-05T05:33:51.471Z,84.38
2017-07-05T05:34:52.052Z,82.94
2017-07-05T05:35:52.632Z,82.85
2017-07-05T05:36:53.212Z,83.33
2017-07-05T05:37:53.793Z,83.19
2017-07-05T05:38:54.375Z,83.91
2017-07-05T05:39:54.954Z,84.38
2017-07-05T05:40:55.536Z,84.09
2017-07-05T05:41:56.114Z,84.38
2017-07-05T05:42:56.695Z,83.85
2017-07-05T05:43:57.277Z,83.37
2017-07-05T05:44:57.869Z,82.79
2017-07-05T05:45:58.448Z,82.21
2017-07-05T05:46:59.028Z,83.85
2017-07-05T05:47:59.612Z,82.12
2017-07-05T05:49:00.189Z,82.12
2017-07-05T05:50:00.772Z,82.64
2017-07-05T05:51:01.352Z,81.20
2017-07-05T05:52:01.933Z,81.84
2017-07-05T05:53:02.514Z,82.12
2017-07-05T05:54:03.093Z,81.93
2017-07-05T05:55:03.674Z,81.59
2017-07-05T05:56:04.256Z,81.40
2017-07-05T05:57:04.838Z,80.91
2017-07-05T05:58:05.426Z,80.43
2017-07-05T05:59:06.008Z,80.63
2017-07-05T06:00:06.590Z,81.10
2017-07-05T06:01:07.169Z,81.40
2017-07-05T06:02:07.749Z,81.30
2017-07-05T06:03:08.330Z,80.91
2017-07-05T06:04:08.913Z,81.01
2017-07-05T06:05:09.497Z,81.74
2017-07-05T06:06:10.075Z,81.49
2017-07-05T06:07:10.669Z,81.30
2017-07-05T06:08:11.246Z,81.20
2017-07-05T06:09:11.839Z,80.82
2017-07-05T06:10:12.420Z,80.86
2017-07-05T06:11:13.002Z,81.43
2017-07-05T06:12:13.581Z,80.73
2017-07-05T06:13:14.173Z,81.10
2017-07-05T06:14:14.756Z,81.20
2017-07-05T06:15:15.350Z,81.43
2017-07-05T06:16:15.931Z,79.90
2017-07-05T06:17:16.512Z,80.53
2017-07-05T06:18:17.094Z,80.82
2017-07-05T06:19:17.675Z,78.94
2017-07-05T06:20:18.270Z,78.99
2017-07-05T06:21:18.851Z,78.99
2017-07-05T06:22:19.431Z,78.32
2017-07-05T06:23:20.011Z,77.75
2017-07-05T06:24:20.605Z,77.50
2017-07-05T06:25:21.185Z,76.73
2017-07-05T06:26:21.766Z,76.82
2017-07-05T06:27:22.348Z,78.17
2017-07-05T06:28:22.929Z,77.88
2017-07-05T06:29:23.512Z,78.30
2017-07-05T06:30:24.093Z,77.06
2017-07-05T06:31:24.674Z,76.00
2017-07-05T06:32:25.258Z,75.52
2017-07-05T06:33:25.836Z,75.42
2017-07-05T06:34:26.419Z,77.09
2017-07-05T06:35:27.002Z,74.46
2017-07-05T06:36:27.583Z,74.50
2017-07-05T06:37:28.165Z,74.69
2017-07-05T06:38:28.747Z,74.88
2017-07-05T06:39:29.327Z,74.15
2017-07-05T06:40:29.908Z,73.63
2017-07-05T06:41:30.488Z,73.54
2017-07-05T06:42:31.071Z,74.50
2017-07-05T06:43:31.655Z,74.88
2017-07-05T06:44:32.246Z,74.40
2017-07-05T06:45:32.828Z,74.69
2017-07-05T06:46:33.408Z,74.55
2017-07-05T06:47:33.992Z,74.50
2017-07-05T06:48:34.574Z,74.69
2017-07-05T06:49:35.157Z,74.60
2017-07-05T06:50:35.749Z,73.06
2017-07-05T06:51:36.330Z,72.00
2017-07-05T06:52:36.909Z,72.67
2017-07-05T06:53:37.494Z,73.06
2017-07-05T06:54:38.074Z,73.63
2017-07-05T06:55:38.655Z,73.63
2017-07-05T06:56:39.236Z,72.71
2017-07-05T06:57:39.818Z,73.06
2017-07-05T06:58:40.402Z,73.57
2017-07-05T06:59:40.983Z,73.25
2017-07-05T07:00:41.564Z,73.83
2017-07-05T07:01:42.147Z,74.69
2017-07-05T07:02:42.727Z,73.73
2017-07-05T07:03:43.310Z,73.47
2017-07-05T07:04:43.892Z,73.47
2017-07-05T07:05:44.474Z,73.38
2017-07-05T07:06:45.058Z,73.77
2017-07-05T07:07:45.639Z,74.09
2017-07-05T07:08:46.221Z,73.22
2017-07-05T07:09:46.805Z,73.42
2017-07-05T07:10:47.386Z,72.59
2017-07-05T07:11:47.966Z,72.59
2017-07-05T07:12:48.547Z,72.01
2017-07-05T07:13:49.130Z,72.20
2017-07-05T07:14:49.713Z,72.68
2017-07-05T07:15:50.294Z,72.65
2017-07-05T07:16:50.875Z,72.55
2017-07-05T07:17:51.457Z,72.24
2017-07-05T07:18:52.040Z,71.47
2017-07-05T07:19:52.622Z,71.28
2017-07-05T07:20:53.204Z,71.28
2017-07-05T07:21:53.799Z,71.28
2017-07-05T07:22:54.390Z,70.50
2017-07-05T07:23:54.974Z,70.56
2017-07-05T07:24:55.554Z,71.60
2017-07-05T07:25:56.137Z,69.96
2017-07-05T07:26:56.721Z,69.61
2017-07-05T07:27:57.303Z,69.23
2017-07-05T07:28:57.884Z,68.26
2017-07-05T07:29:58.468Z,68.59
2017-07-05T07:30:59.050Z,68.10
2017-07-05T07:31:59.633Z,67.20
2017-07-05T07:33:00.214Z,68.35
2017-07-05T07:34:00.797Z,68.07
2017-07-05T07:35:01.380Z,67.91
2017-07-05T07:36:01.962Z,68.16
2017-07-05T07:37:02.545Z,68.07
2017-07-05T07:38:03.129Z,68.71
2017-07-05T07:39:03.712Z,68.80
2017-07-05T07:40:04.296Z,69.77
2017-07-05T07:41:04.879Z,69.64
2017-07-05T07:42:05.460Z,70.21
2017-07-05T07:43:06.048Z,70.21
2017-07-05T07:44:06.628Z,69.77
2017-07-05T07:45:07.210Z,70.92
2017-07-05T07:46:07.794Z,69.29
2017-07-05T07:47:08.377Z,68.99
2017-07-05T07:48:08.959Z,69.23
2017-07-05T07:49:09.540Z,69.80
2017-07-05T07:50:10.125Z,68.84
2017-07-05T07:51:10.710Z,68.23
2017-07-05T07:52:11.293Z,69.64
2017-07-05T07:53:11.874Z,70.15
2017-07-05T07:54:12.458Z,70.31
2017-07-05T07:55:13.043Z,70.70
2017-07-05T07:56:13.637Z,70.98
2017-07-05T07:57:14.220Z,70.98
2017-07-05T07:58:14.800Z,70.12
2017-07-05T07:59:15.385Z,70.31
2017-07-05T08:00:15.972Z,70.64
2017-07-05T08:01:16.551Z,70.25
2017-07-05T08:02:17.132Z,70.54
2017-07-05T08:03:17.714Z,69.57
2017-07-05T08:04:18.297Z,70.15
2017-07-05T08:05:18.887Z,69.87
2017-07-05T08:06:19.463Z,69.77
2017-07-05T08:07:20.045Z,70.57
2017-07-05T08:08:20.629Z,70.42
2017-07-05T08:09:21.210Z,68.87
2017-07-05T08:10:21.794Z,69.03
2017-07-05T08:11:22.375Z,69.35
2017-07-05T08:12:22.959Z,68.26
2017-07-05T08:13:23.595Z,68.74
2017-07-05T08:14:24.128Z,68.87
2017-07-05T08:15:24.710Z,69.38
2017-07-05T08:16:25.293Z,69.87
2017-07-05T08:17:25.875Z,69.96
2017-07-05T08:18:26.459Z,70.64
2017-07-05T08:19:27.042Z,70.15
2017-07-05T08:20:27.625Z,70.28
2017-07-05T08:21:28.212Z,70.22
2017-07-05T08:22:28.793Z,69.84
2017-07-05T08:23:29.377Z,68.84
2017-07-05T08:24:29.981Z,69.32
2017-07-05T08:25:30.565Z,68.93
2017-07-05T08:26:31.148Z,69.74
2017-07-05T08:27:31.733Z,68.62
2017-07-05T08:28:32.317Z,68.71
2017-07-05T08:29:32.899Z,68.49
2017-07-05T08:30:33.481Z,69.74
2017-07-05T08:31:34.065Z,68.87
2017-07-05T08:32:34.648Z,68.87
2017-07-05T08:33:35.243Z,68.43
2017-07-05T08:34:35.827Z,69.10
2017-07-05T08:35:36.410Z,69.42
2017-07-05T08:36:36.993Z,68.81
2017-07-05T08:37:37.577Z,67.49
2017-07-05T08:38:38.160Z,67.65
2017-07-05T08:39:38.743Z,67.49
2017-07-05T08:40:39.338Z,67.59
2017-07-05T08:41:39.921Z,67.94
2017-07-05T08:42:40.505Z,68.52
2017-07-05T08:43:41.091Z,68.04
2017-07-05T08:44:41.673Z,68.36
2017-07-05T08:45:42.255Z,68.55
2017-07-05T08:46:42.838Z,68.36
2017-07-05T08:47:43.422Z,68.71
2017-07-05T08:48:44.012Z,69.68
2017-07-05T08:49:44.590Z,69.64
2017-07-05T08:50:45.173Z,70.03
2017-07-05T08:51:45.767Z,70.80
2017-07-05T08:52:46.350Z,69.20
2017-07-05T08:53:46.934Z,68.81
2017-07-05T08:54:47.520Z,68.94
2017-07-05T08:55:48.102Z,68.43
2017-07-05T08:56:48.686Z,68.84
2017-07-05T08:57:49.270Z,68.26
2017-07-05T08:58:49.853Z,68.46
2017-07-05T08:59:50.436Z,67.49
2017-07-05T09:00:51.020Z,67.14
2017-07-05T09:01:51.605Z,66.94
2017-07-05T09:02:52.192Z,67.14
2017-07-05T09:03:52.771Z,67.72
2017-07-05T09:04:53.368Z,66.56
2017-07-05T09:05:53.963Z,66.69
2017-07-05T09:06:54.548Z,67.04
2017-07-05T09:07:55.130Z,66.85
2017-07-05T09:08:55.715Z,67.24
2017-07-05T09:09:56.301Z,67.59
2017-07-05T09:10:56.896Z,68.20
2017-07-05T09:11:57.478Z,68.26
2017-07-05T09:12:58.060Z,68.36
2017-07-05T09:13:58.680Z,68.01
2017-07-05T09:14:59.274Z,66.78
2017-07-05T09:15:59.859Z,66.56
2017-07-05T09:17:00.445Z,66.75
2017-07-05T09:18:01.026Z,66.94
2017-07-05T09:19:01.614Z,66.43
2017-07-05T09:20:02.195Z,67.20
2017-07-05T09:21:02.780Z,67.97
2017-07-05T09:22:03.365Z,67.11
2017-07-05T09:23:03.947Z,66.63
2017-07-05T09:24:04.531Z,67.33
2017-07-05T09:25:05.116Z,66.66
2017-07-05T09:26:05.704Z,65.88
2017-07-05T09:27:06.283Z,66.56
2017-07-05T09:28:06.866Z,66.36
2017-07-05T09:29:07.450Z,66.85
2017-07-05T09:30:08.037Z,67.04
2017-07-05T09:31:08.620Z,66.11
2017-07-05T09:32:09.206Z,66.11
2017-07-05T09:33:09.789Z,66.59
2017-07-05T09:34:10.372Z,66.40
2017-07-05T09:35:10.957Z,65.69
2017-07-05T09:36:11.540Z,65.43
2017-07-05T09:37:12.124Z,65.14
2017-07-05T09:38:12.709Z,65.01
2017-07-05T09:39:13.295Z,64.53
2017-07-05T09:40:13.876Z,64.72
2017-07-05T09:41:14.461Z,64.98
2017-07-05T09:42:15.046Z,64.72
2017-07-05T09:43:15.630Z,64.21
2017-07-05T09:44:16.215Z,63.08
2017-07-05T09:45:16.800Z,61.85
2017-07-05T09:46:17.384Z,61.76
2017-07-05T09:47:17.967Z,62.01
2017-07-05T09:48:18.551Z,63.05
2017-07-05T09:49:19.140Z,63.18
2017-07-05T09:50:19.721Z,62.98
2017-07-05T09:51:20.309Z,62.66
2017-07-05T09:52:20.891Z,63.34
2017-07-05T09:53:21.486Z,64.72
2017-07-05T09:54:22.071Z,63.63
2017-07-05T09:55:22.657Z,64.66
2017-07-05T09:56:23.240Z,64.85
2017-07-05T09:57:23.826Z,64.01
2017-07-05T09:58:24.413Z,64.92
2017-07-05T09:59:24.997Z,62.08
2017-07-05T10:00:25.582Z,62.56
2017-07-05T10:01:26.168Z,64.24
2017-07-05T10:02:26.750Z,62.01
2017-07-05T10:03:27.334Z,62.85
2017-07-05T10:04:27.919Z,64.31
2017-07-05T10:05:28.502Z,64.59
2017-07-05T10:06:29.090Z,64.01
2017-07-05T10:07:29.670Z,62.40
2017-07-05T10:08:30.266Z,62.47
2017-07-05T10:09:30.853Z,61.21
2017-07-05T10:10:31.436Z,61.79
2017-07-05T10:11:32.021Z,61.92
2017-07-05T10:12:32.606Z,61.43
2017-07-05T10:13:33.192Z,61.53
2017-07-05T10:14:33.792Z,61.92
2017-07-05T10:15:34.374Z,61.79
2017-07-05T10:16:34.966Z,64.40
2017-07-05T10:17:35.543Z,62.30
2017-07-05T10:18:36.130Z,62.01
2017-07-05T10:19:36.718Z,61.85
2017-07-05T10:20:37.299Z,59.40
2017-07-05T10:21:37.883Z,59.56
2017-07-05T10:22:38.471Z,60.05
2017-07-05T10:23:39.055Z,59.89
2017-07-05T10:24:39.640Z,59.72
2017-07-05T10:25:40.225Z,61.11
2017-07-05T10:26:40.815Z,58.01
2017-07-05T10:27:41.395Z,58.20
2017-07-05T10:28:41.981Z,58.17
2017-07-05T10:29:42.565Z,59.31
2017-07-05T10:30:43.150Z,60.17
2017-07-05T10:31:43.733Z,59.69
2017-07-05T10:32:44.318Z,59.36
2017-07-05T10:33:44.904Z,57.98
2017-07-05T10:34:45.488Z,58.27
2017-07-05T10:35:46.072Z,58.17
2017-07-05T10:36:46.658Z,59.40
2017-07-05T10:37:47.241Z,60.53
2017-07-05T10:38:47.826Z,61.92
2017-07-05T10:39:48.410Z,62.27
2017-07-05T10:40:48.995Z,62.47
2017-07-05T10:41:49.580Z,61.79
2017-07-05T10:42:50.165Z,61.30
2017-07-05T10:43:50.751Z,60.95
2017-07-05T10:44:51.337Z,59.53
2017-07-05T10:45:51.921Z,59.53
2017-07-05T10:46:52.506Z,59.53
2017-07-05T10:47:53.094Z,59.53
2017-07-05T10:48:53.678Z,59.14
2017-07-05T10:49:54.262Z,58.69
2017-07-05T10:50:54.847Z,58.88
2017-07-05T10:51:55.434Z,59.30
2017-07-05T10:52:56.019Z,57.81
2017-07-05T10:53:56.604Z,58.11
2017-07-05T10:54:57.190Z,57.53
2017-07-05T10:55:57.778Z,57.14
2017-07-05T10:56:58.361Z,58.04
2017-07-05T10:57:58.946Z,56.75
2017-07-05T10:58:59.532Z,57.71
2017-07-05T11:00:00.117Z,58.01
2017-07-05T11:01:00.712Z,57.71
2017-07-05T11:02:01.308Z,59.07
2017-07-05T11:03:01.895Z,59.78
2017-07-05T11:04:02.478Z,57.53
2017-07-05T11:05:03.064Z,58.30
2017-07-05T11:06:03.650Z,59.43
2017-07-05T11:07:04.233Z,59.23
2017-07-05T11:08:04.818Z,60.33
2017-07-05T11:09:05.402Z,59.82
2017-07-05T11:10:05.997Z,61.05
2017-07-05T11:11:06.581Z,62.01
2017-07-05T11:12:07.168Z,62.11
2017-07-05T11:13:07.751Z,61.21
2017-07-05T11:14:08.334Z,61.24
2017-07-05T11:15:08.919Z,60.78
2017-07-05T11:16:09.505Z,60.63
2017-07-05T11:17:10.093Z,60.85
2017-07-05T11:18:10.678Z,60.69
2017-07-05T11:19:11.263Z,60.04
2017-07-05T11:20:11.852Z,58.78
2017-07-05T11:21:12.439Z,57.84
2017-07-05T11:22:13.022Z,58.33
2017-07-05T11:23:13.609Z,57.26
2017-07-05T11:24:14.194Z,56.97
2017-07-05T11:25:14.779Z,57.98
2017-07-05T11:26:15.368Z,59.43
2017-07-05T11:27:15.952Z,58.88
2017-07-05T11:28:16.537Z,57.26
2017-07-05T11:29:17.125Z,57.75
2017-07-05T11:30:17.709Z,56.71
2017-07-05T11:31:18.294Z,56.29
2017-07-05T11:32:18.882Z,57.45
2017-07-05T11:33:19.467Z,58.69
2017-07-05T11:34:20.051Z,57.43
2017-07-05T11:35:20.638Z,56.16
2017-07-05T11:36:21.221Z,57.14
2017-07-05T11:37:21.806Z,56.68
2017-07-05T11:38:22.390Z,56.77
2017-07-05T11:39:22.974Z,56.71
2017-07-05T11:40:23.560Z,55.83
2017-07-05T11:41:24.145Z,55.93
2017-07-05T11:42:24.730Z,57.33
2017-07-05T11:43:25.326Z,59.98
2017-07-05T11:44:25.912Z,60.95
2017-07-05T11:45:26.495Z,60.88
2017-07-05T11:46:27.092Z,60.66
2017-07-05T11:47:27.675Z,60.75
2017-07-05T11:48:28.261Z,60.78
2017-07-05T11:49:28.845Z,60.85
2017-07-05T11:50:29.429Z,60.47
2017-07-05T11:51:30.013Z,61.36
2017-07-05T11:52:30.600Z,60.11
2017-07-05T11:53:31.184Z,60.40
2017-07-05T11:54:31.767Z,60.11
2017-07-05T11:55:32.354Z,60.37
2017-07-05T11:56:32.940Z,60.21
2017-07-05T11:57:33.525Z,60.98
2017-07-05T11:58:34.111Z,58.69
2017-07-05T11:59:34.696Z,58.81
2017-07-05T12:00:35.282Z,58.01
2017-07-05T12:01:35.866Z,58.20
2017-07-05T12:02:36.463Z,58.69
2017-07-05T12:03:37.049Z,58.20
2017-07-05T12:04:37.637Z,58.30
2017-07-05T12:05:38.221Z,58.30
2017-07-05T12:06:38.811Z,57.55
2017-07-05T12:07:39.394Z,57.84
2017-07-05T12:08:39.980Z,58.04
2017-07-05T12:09:40.565Z,58.23
2017-07-05T12:10:41.151Z,58.26
2017-07-05T12:11:41.737Z,56.49
2017-07-05T12:12:42.326Z,57.09
2017-07-05T12:13:42.909Z,56.71
2017-07-05T12:14:43.494Z,57.97
2017-07-05T12:15:44.091Z,56.23
2017-07-05T12:16:44.678Z,55.71
2017-07-05T12:17:45.269Z,56.41
2017-07-05T12:18:45.855Z,56.61
2017-07-05T12:19:46.439Z,55.93
2017-07-05T12:20:47.036Z,56.57
2017-07-05T12:21:47.623Z,56.35
2017-07-05T12:22:48.204Z,55.99
2017-07-05T12:23:48.790Z,56.09
2017-07-05T12:24:49.385Z,55.77
2017-07-05T12:25:49.970Z,55.54
2017-07-05T12:26:50.556Z,56.03
2017-07-05T12:27:51.139Z,56.87
2017-07-05T12:28:51.726Z,57.78
2017-07-05T12:29:52.313Z,56.54
2017-07-05T12:30:52.899Z,56.74
2017-07-05T12:31:53.489Z,56.28
2017-07-05T12:32:54.072Z,54.92
2017-07-05T12:33:54.658Z,55.11
2017-07-05T12:34:55.247Z,55.31
2017-07-05T12:35:55.830Z,54.92
2017-07-05T12:36:56.428Z,54.41
2017-07-05T12:37:57.016Z,55.28
2017-07-05T12:38:57.604Z,54.75
2017-07-05T12:39:58.190Z,54.14
2017-07-05T12:40:58.781Z,54.34
2017-07-05T12:41:59.364Z,54.82
2017-07-05T12:42:59.949Z,55.24
2017-07-05T12:44:00.536Z,55.04
2017-07-05T12:45:01.123Z,54.75
2017-07-05T12:46:01.709Z,54.17
2017-07-05T12:47:02.295Z,53.47
2017-07-05T12:48:02.882Z,54.90
2017-07-05T12:49:03.472Z,54.90
2017-07-05T12:50:04.056Z,55.60
2017-07-05T12:51:04.642Z,55.11
2017-07-05T12:52:05.228Z,54.53
2017-07-05T12:53:05.815Z,54.53
2017-07-05T12:54:06.403Z,54.14
2017-07-05T12:55:06.991Z,55.04
2017-07-05T12:56:07.577Z,54.56
2017-07-05T12:57:08.176Z,54.27
2017-07-05T12:58:08.763Z,54.48
2017-07-05T12:59:09.350Z,56.20
2017-07-05T13:00:09.948Z,56.20